Lander, WY (82520)

4:07 AM MDT on September 01, 2015 (GMT -0600)
APRSWXNET | | Change Station
CLOSE
Current Station
Personal Weather Station
Location: Lander, WY
Elevation: 5807 ft
Nearby Weather Stations
Active Advisory: Fire Weather Warning

Elev 5807 ft 42.78 °N, 108.77 °W | Updated 20 minutes ago

Clear
Clear
59 °F
Feels Like 59 °F
N
0
Wind Variable Wind from SSE
Gusts 4.0 mph

Today
High -- | Low -- °F
--% Chance of Precip.
Yesterday
High -- | Low -- °F
Precip. -- in
6:39 AM 7:49 PM
Waning Gibbous, 90% visible
Pressure 29.80 in
Visibility 10.0 miles
Clouds Clear
Dew Point 26 °F
Humidity 28%
Rainfall in
Snow Depth Not available.
UV 0 out of 12
Pollen 9.50 out of 12
Air Quality Not available.
Flu Activity Not available.
METAR KLND 010953Z AUTO 21003KT 10SM CLR 16/M04 A3002 RMK AO2 SLP091 T01611039
Pressure 29.80 in
Visibility 10.0 miles
Clouds Clear
Dew Point 26 °F
Humidity 28%
Rainfall in
Snow Depth Not available.
UV 0 out of 12
Pollen 9.50 out of 12
Air Quality Not available.
Flu Activity Not available.
METAR KLND 010953Z AUTO 21003KT 10SM CLR 16/M04 A3002 RMK AO2 SLP091 T01611039

10-Day Weather Forecast

×

Almanac

Astronomy

Sep. 01, 2015 Rise Set
Actual Time
Civil Twilight
Nautical Twilight
Astronomical Twilight
Moon
Length of Visible Light
Length of Day
Tomorrow will be .
, % of the Moon is Illuminated

Today's Extremes

State Highs State Lows

Community

WunderPhotos

Upload Photos

1,851,501 photos uploaded!

WunderBlogs® & News

Nearby

Air Quality

  Air Quality AQ Index Pollutant
Not available.

Snow Depth

Station Depth Elevation

Earthquake Activity

City Distance Mag. Time & Date
Minimum magnitude displayed is 2.5.

Coastal Water Temperatures

Place Temperature

Stations

Nearby Weather Stations

Station Location Temp. Windchill Dew Point Humidity Wind Precip. Elev Updated Type
                   
Fire Weather Warning
Statement as of 3:13 AM MDT on September 01, 2015

... Red flag warning remains in effect until 9 PM MDT Wednesday
for strong wind and low humidity...

* affected area... fire weather zone 276. Fire weather zone 280.
Fire weather zone 281. Fire weather zone 282. Fire weather
zone 283. Fire weather zone 285. Fire weather zone 287. Fire
weather zone 289. Fire weather zone 300. Fire weather zone
416.

* Wind... southwest wind 15 to 25 mph with gusts to 30 mph this
afternoon and 40 mph Wednesday afternoon. Stronger gusts
possible in thunderstorms could send out strong outflow winds.

* Humidity... low to mid teens during the afternoons.

* Impacts... any fires that develop will likely spread rapidly.
Outdoor burning is not recommended.

Precautionary/preparedness actions...

A red flag warning means that critical fire weather conditions
are either occurring now... or will shortly. A combination of
strong winds... low relative humidity... and warm temperatures will
create extreme fire behavior.